»·PEaware :: N6182G L52-L88

N6182G :: L52-L88

FLIGHT INFORMATION

Flight Status: Arrived
Operator: Privately registered:
United States
More flights under this callsign
Pilot: Kimon R. (26379)
Aircraft: Unknown
(/B)
More flights by this aircraft type
Origin: L52 Oceano Co
United States
Destination: L88 New Cuyama
United States
More flights between these airports :: More routes between these airports
Route: L52 L88
File this flight plan on PilotEdge
Remarks: CAT 1
Altitude:
(Current/Filed)
2,000ft
Speed:
(Current/Filed)
140kts
Departed: 27-Sep-19 07:31 AM
Arrived: 27-Sep-19 08:13 AM
Distance/Time
Traveled:
47nm/0:42
Distance/Time
To Go:
Arrived

Flight Plot

Page will automatically refresh every two minutes.


Map Options




Map Legend


Flown Route
Filed Route
Departure Airport
Arrival Airport
Navaid (VOR, NDB)
Fix

Horizontal Profiles

Position Reports

Time Latitude Longitude Heading Altitude Ground
Speed
27-Sep-19 07:24 35.102964 -120.623556 304 17ft 0kts
27-Sep-19 07:25 35.102965 -120.623558 304 17ft 0kts
27-Sep-19 07:26 35.102966 -120.623559 304 17ft 0kts
27-Sep-19 07:27 35.102966 -120.623560 304 17ft 0kts
27-Sep-19 07:28 35.103026 -120.623666 304 17ft 5kts
27-Sep-19 07:29 35.103544 -120.625257 204 17ft 2kts
27-Sep-19 07:30 35.097268 -120.613491 117 206ft 97kts
27-Sep-19 07:39 35.103471 -120.624710 214 17ft 0kts
27-Sep-19 07:40 35.103470 -120.624710 214 17ft 0kts
27-Sep-19 07:41 35.103469 -120.624711 214 17ft 0kts
27-Sep-19 07:42 35.103468 -120.624712 214 17ft 0kts
27-Sep-19 07:43 35.102510 -120.624214 123 17ft 42kts
27-Sep-19 07:44 35.096736 -120.599304 76 639ft 105kts
27-Sep-19 07:45 35.106595 -120.564846 94 1677ft 111kts
27-Sep-19 07:46 35.091891 -120.526123 112 1967ft 129kts
27-Sep-19 07:47 35.079076 -120.485680 108 1934ft 124kts
27-Sep-19 07:48 35.068397 -120.448647 104 2007ft 112kts
27-Sep-19 07:49 35.062019 -120.409694 93 2029ft 115kts
27-Sep-19 07:50 35.059685 -120.369855 104 1999ft 119kts
27-Sep-19 07:52 35.052244 -120.330779 99 1930ft 116kts
27-Sep-19 07:53 35.044334 -120.294194 104 1942ft 109kts
27-Sep-19 07:54 35.037011 -120.258051 99 1965ft 114kts
27-Sep-19 07:55 35.034733 -120.216345 76 2063ft 129kts
27-Sep-19 07:56 35.056650 -120.181908 45 2016ft 129kts
27-Sep-19 07:57 35.082448 -120.150759 44 2025ft 130kts
27-Sep-19 07:58 35.089830 -120.108538 85 2030ft 130kts
27-Sep-19 07:59 35.088352 -120.067276 96 2253ft 126kts
27-Sep-19 08:00 35.083299 -120.023146 109 2087ft 137kts
27-Sep-19 08:01 35.066177 -119.985465 122 1762ft 116kts
27-Sep-19 08:02 35.045590 -119.948709 123 2107ft 135kts
27-Sep-19 08:03 35.030873 -119.907773 110 2023ft 124kts
27-Sep-19 08:04 35.013339 -119.872923 132 2047ft 122kts
27-Sep-19 08:05 34.992317 -119.841971 133 2138ft 120kts
27-Sep-19 08:06 34.980017 -119.806094 106 2317ft 104kts
27-Sep-19 08:07 34.974179 -119.769054 99 2444ft 115kts
27-Sep-19 08:08 34.969309 -119.733723 99 2534ft 118kts
27-Sep-19 08:09 34.952764 -119.698684 139 2517ft 121kts
27-Sep-19 08:10 34.942421 -119.663671 91 2718ft 113kts
27-Sep-19 08:11 34.929653 -119.647335 241 2580ft 93kts
27-Sep-19 08:11 34.933648 -119.670625 296 2309ft 86kts
27-Sep-19 08:13 34.941864 -119.690306 304 2206ft 19kts
27-Sep-19 08:13 34.942827 -119.690525 114 2206ft 2kts
27-Sep-19 08:14 34.942544 -119.689883 280 2206ft 0kts
27-Sep-19 08:15 34.942544 -119.689884 280 2206ft 0kts
27-Sep-19 08:17 34.942545 -119.689885 280 2206ft 0kts
27-Sep-19 08:17 34.942545 -119.689886 280 2206ft 0kts
27-Sep-19 08:18 34.942545 -119.689887 280 2206ft 0kts
27-Sep-19 08:19 34.942545 -119.689888 280 2206ft 0kts
27-Sep-19 08:20 34.942545 -119.689889 280 2206ft 0kts
27-Sep-19 08:21 34.942545 -119.689891 280 2206ft 0kts
27-Sep-19 08:22 34.942546 -119.689892 280 2206ft 0kts
27-Sep-19 08:23 34.942546 -119.689893 280 2206ft 0kts
27-Sep-19 08:24 34.942546 -119.689894 280 2206ft 0kts
27-Sep-19 08:25 34.942546 -119.689895 280 2206ft 0kts

Navigation Log

Ident Type
Flight plan parsing failed, navigation log unavailable